»·PEaware :: N313WC KLAX-KSNA

N313WC :: KLAX-KSNA

FLIGHT INFORMATION

Flight Status: Arrived
Operator: Privately registered:
United States
More flights under this callsign
Pilot: Sonny B. (6473)
Aircraft: PIPER PA-30 TWIN COMANCHE
(PA30)
More flights by this aircraft type
Origin: KLAX Los Angeles Intl
United States
Destination: KSNA John Wayne-Orange Co
United States
More flights between these airports :: More routes between these airports
Route: SLI8 SLI
File this flight plan on PilotEdge
Remarks: I-6 Rating
Altitude:
(Current/Filed)
4,000ft
Speed:
(Current/Filed)
150kts
Departed: 11-Jan-18 07:09 PM
Arrived: 11-Jan-18 07:53 PM
Distance/Time
Traveled:
31nm/0:44
Distance/Time
To Go:
Arrived

Flight Plot

Page will automatically refresh every two minutes.

Flight plan parsing failed; only flown route is shown


Map Options




Map Legend


Flown Route
Filed Route
Departure Airport
Arrival Airport
Navaid (VOR, NDB)
Fix

Horizontal Profiles

Position Reports

Time Latitude Longitude Heading Altitude Ground
Speed
11-Jan-18 18:57 33.932734 -118.399123 21 128ft 0kts
11-Jan-18 18:58 33.932734 -118.399123 21 128ft 0kts
11-Jan-18 18:59 33.932734 -118.399123 21 128ft 0kts
11-Jan-18 19:00 33.932734 -118.399123 21 128ft 0kts
11-Jan-18 19:01 33.932734 -118.399123 21 128ft 0kts
11-Jan-18 19:02 33.932734 -118.399123 21 128ft 0kts
11-Jan-18 19:03 33.932734 -118.399123 21 128ft 0kts
11-Jan-18 19:04 33.932734 -118.399123 21 128ft 0kts
11-Jan-18 19:05 33.932734 -118.399123 21 128ft 0kts
11-Jan-18 19:06 33.932734 -118.399123 21 128ft 0kts
11-Jan-18 19:07 33.932734 -118.399123 21 128ft 0kts
11-Jan-18 19:08 33.932734 -118.399123 21 128ft 0kts
11-Jan-18 19:09 33.933328 -118.398852 21 128ft 12kts
11-Jan-18 19:10 33.934845 -118.395173 82 128ft 24kts
11-Jan-18 19:11 33.935480 -118.389203 85 128ft 19kts
11-Jan-18 19:12 33.936076 -118.383268 77 128ft 14kts
11-Jan-18 19:13 33.936440 -118.382771 0 128ft 0kts
11-Jan-18 19:14 33.936443 -118.382771 0 128ft 0kts
11-Jan-18 19:15 33.937129 -118.385396 262 128ft 60kts
11-Jan-18 19:16 33.934891 -118.413754 266 690ft 131kts
11-Jan-18 19:17 33.930054 -118.455580 262 1361ft 128kts
11-Jan-18 19:18 33.907215 -118.484250 214 2015ft 124kts
11-Jan-18 19:19 33.878542 -118.507747 215 2625ft 125kts
11-Jan-18 19:20 33.844967 -118.515081 185 3212ft 128kts
11-Jan-18 19:21 33.810439 -118.515715 184 3854ft 126kts
11-Jan-18 19:22 33.772985 -118.515480 183 3991ft 143kts
11-Jan-18 19:23 33.733365 -118.510312 142 3984ft 151kts
11-Jan-18 19:24 33.700641 -118.478043 142 3992ft 153kts
11-Jan-18 19:25 33.667518 -118.446025 141 3993ft 153kts
11-Jan-18 19:26 33.634321 -118.414247 141 4002ft 153kts
11-Jan-18 19:27 33.627493 -118.368407 81 4001ft 150kts
11-Jan-18 19:28 33.635999 -118.319971 53 3998ft 150kts
11-Jan-18 19:29 33.659555 -118.278750 52 3996ft 149kts
11-Jan-18 19:30 33.682877 -118.238407 52 3996ft 150kts
11-Jan-18 19:31 33.706043 -118.198688 52 3994ft 154kts
11-Jan-18 19:32 33.729130 -118.158664 53 3992ft 154kts
11-Jan-18 19:33 33.750312 -118.119754 55 3990ft 153kts
11-Jan-18 19:34 33.770081 -118.083136 55 3989ft 152kts
11-Jan-18 19:35 33.788978 -118.048132 57 3988ft 152kts
11-Jan-18 19:36 33.806004 -118.013121 58 3989ft 153kts
11-Jan-18 19:37 33.821007 -117.976220 63 3989ft 154kts
11-Jan-18 19:38 33.836042 -117.937443 63 3989ft 155kts
11-Jan-18 19:39 33.851089 -117.897588 64 3989ft 155kts
11-Jan-18 19:40 33.867459 -117.855120 61 3989ft 155kts
11-Jan-18 19:41 33.883800 -117.814818 62 3988ft 152kts
11-Jan-18 19:42 33.899576 -117.776000 61 3991ft 150kts
11-Jan-18 19:43 33.915008 -117.736667 64 3992ft 149kts
11-Jan-18 19:44 33.931185 -117.701942 26 3989ft 136kts
11-Jan-18 19:45 33.954160 -117.684504 30 3629ft 124kts
11-Jan-18 19:46 33.978184 -117.678829 316 3524ft 127kts
11-Jan-18 19:47 33.966172 -117.703621 177 3529ft 131kts
11-Jan-18 19:48 33.930579 -117.706736 196 3523ft 130kts
11-Jan-18 19:49 33.900942 -117.724632 210 3425ft 120kts
11-Jan-18 19:50 33.874087 -117.741868 209 3392ft 113kts
11-Jan-18 19:51 33.846778 -117.759451 209 3388ft 112kts
11-Jan-18 19:52 33.819668 -117.776930 209 2920ft 120kts
11-Jan-18 19:53 33.793377 -117.793786 208 2349ft 105kts
11-Jan-18 19:54 33.770126 -117.808861 208 2091ft 101kts
11-Jan-18 19:55 33.747246 -117.823884 209 1506ft 104kts
11-Jan-18 19:56 33.724767 -117.838079 206 1010ft 96kts
11-Jan-18 19:57 33.704065 -117.850898 207 616ft 91kts
11-Jan-18 19:58 33.687152 -117.861573 208 228ft 85kts
11-Jan-18 19:59 33.675762 -117.868727 200 59ft 24kts
11-Jan-18 20:00 33.674807 -117.868643 160 59ft 0kts
11-Jan-18 20:01 33.674554 -117.868532 158 59ft 13kts
11-Jan-18 20:02 33.671683 -117.867318 204 59ft 0kts

Navigation Log

Ident Type
Flight plan parsing failed, navigation log unavailable